Time;durP1;ratioP1;P1;durP2;ratioP2;P2;SDS_P1;SDS_P2;PMS_P1;PMS_P2;Temp;Humidity;BMP_temperature;BMP_pressure;BME280_temperature;BME280_humidity;BME280_pressure;Samples;Min_cycle;Max_cycle;Signal;HPM_P1;HPM_P2
2023/12/17 00:00:15;;;;;;;5.57;3.50;;;;;;;1.71;100.00;99918.72;6269179;28;20634;-44
2023/12/17 00:03:18;;;;;;;4.60;3.90;;;;;;;1.60;100.00;99924.06;6267070;28;20196;-45
2023/12/17 00:06:21;;;;;;;4.93;3.40;;;;;;;1.31;100.00;99921.22;6265403;28;20200;-46
2023/12/17 00:09:24;;;;;;;6.10;3.60;;;;;;;1.09;100.00;99920.38;6268466;28;20685;-45
2023/12/17 00:12:26;;;;;;;8.00;4.17;;;;;;;1.32;100.00;99917.66;6269461;28;20602;-45
2023/12/17 00:15:28;;;;;;;5.67;3.50;;;;;;;1.32;100.00;99928.16;6269286;28;20718;-45
2023/12/17 00:18:30;;;;;;;5.83;3.83;;;;;;;1.38;100.00;99915.34;6268326;28;20855;-44
2023/12/17 00:21:32;;;;;;;12.20;4.27;;;;;;;1.45;100.00;99906.00;6266399;28;20199;-46
2023/12/17 00:24:34;;;;;;;7.50;3.63;;;;;;;1.58;100.00;99903.19;6268298;28;20199;-45
2023/12/17 00:27:37;;;;;;;6.10;4.17;;;;;;;2.49;100.00;99904.09;6268083;28;20300;-46
2023/12/17 00:30:39;;;;;;;6.23;4.27;;;;;;;2.22;100.00;99876.63;6266342;28;20207;-46
2023/12/17 00:33:41;;;;;;;6.37;4.53;;;;;;;2.29;100.00;99890.88;6250985;28;20200;-44
2023/12/17 00:36:44;;;;;;;8.63;4.57;;;;;;;2.26;100.00;99899.03;6268317;28;20280;-44
2023/12/17 00:39:46;;;;;;;5.47;4.03;;;;;;;2.46;100.00;99906.97;6250538;28;20204;-45
2023/12/17 00:42:48;;;;;;;5.37;4.00;;;;;;;2.78;100.00;99902.31;6269058;28;20195;-45
2023/12/17 00:45:50;;;;;;;8.13;3.87;;;;;;;2.80;100.00;99897.75;6265731;28;20326;-44
2023/12/17 00:48:52;;;;;;;6.03;3.70;;;;;;;2.92;100.00;99910.78;6267846;28;20204;-45
2023/12/17 00:51:54;;;;;;;6.07;3.57;;;;;;;3.08;100.00;99926.88;6268295;28;20204;-47
2023/12/17 00:54:56;;;;;;;3.70;3.20;;;;;;;3.17;100.00;99917.31;6266892;28;20229;-47
2023/12/17 00:57:58;;;;;;;4.70;3.17;;;;;;;3.24;99.17;99906.06;6268583;28;20200;-44
2023/12/17 01:01:01;;;;;;;6.87;3.50;;;;;;;3.68;95.87;99929.31;6267818;28;20198;-45
2023/12/17 01:04:04;;;;;;;5.03;3.57;;;;;;;3.94;92.86;99937.41;6262165;28;20661;-46
2023/12/17 01:07:06;;;;;;;7.70;3.80;;;;;;;3.68;95.16;99943.31;6267728;28;20211;-46
2023/12/17 01:10:08;;;;;;;6.33;3.30;;;;;;;3.38;97.72;99954.03;6267635;28;20268;-46
2023/12/17 01:13:10;;;;;;;4.17;3.53;;;;;;;3.41;96.33;99954.59;6267688;28;20244;-45
2023/12/17 01:16:12;;;;;;;6.17;3.30;;;;;;;3.19;98.46;99949.59;6267459;28;20197;-47
2023/12/17 01:19:14;;;;;;;4.50;3.03;;;;;;;2.98;99.75;99963.72;6265920;28;20665;-46
2023/12/17 01:22:17;;;;;;;3.40;2.83;;;;;;;2.78;100.00;99962.88;6266002;28;20206;-45
2023/12/17 01:25:19;;;;;;;3.23;2.67;;;;;;;2.42;100.00;99950.31;6267416;28;20682;-45
2023/12/17 01:28:21;;;;;;;5.23;3.13;;;;;;;2.44;100.00;99961.53;6248287;28;20548;-44
2023/12/17 01:31:23;;;;;;;7.33;3.77;;;;;;;2.78;100.00;99952.34;6267291;28;20777;-45
2023/12/17 01:34:25;;;;;;;7.10;3.70;;;;;;;2.84;100.00;99946.53;6267718;28;20346;-45
2023/12/17 01:37:28;;;;;;;6.60;4.13;;;;;;;2.70;100.00;99939.00;6266542;28;20203;-44
2023/12/17 01:40:31;;;;;;;6.53;3.57;;;;;;;3.28;97.80;99940.88;6267499;28;20195;-45
2023/12/17 01:43:33;;;;;;;5.57;3.50;;;;;;;3.26;98.64;99934.91;6266432;28;20197;-45
2023/12/17 01:46:36;;;;;;;6.30;3.73;;;;;;;3.41;97.59;99932.69;6266581;28;20251;-44
2023/12/17 01:49:38;;;;;;;6.80;4.20;;;;;;;3.77;94.52;99920.53;6266838;28;20213;-46
2023/12/17 01:52:41;;;;;;;4.93;3.87;;;;;;;3.72;94.82;99922.78;6248304;28;20766;-44
2023/12/17 01:55:46;;;;;;;7.53;4.57;;;;;;;3.75;94.64;99925.97;6267016;28;20631;-46
2023/12/17 01:58:48;;;;;;;7.33;4.93;;;;;;;3.78;93.72;99949.38;6246550;28;20190;-45
2023/12/17 02:01:52;;;;;;;5.40;4.00;;;;;;;3.70;94.57;99944.03;6266410;28;20198;-47
2023/12/17 02:04:55;;;;;;;5.60;3.80;;;;;;;3.30;96.80;99904.66;6267153;28;20199;-45
2023/12/17 02:07:57;;;;;;;6.30;4.37;;;;;;;3.57;95.97;99939.03;6266648;28;20215;-47
2023/12/17 02:10:59;;;;;;;6.00;4.30;;;;;;;3.64;95.77;99941.94;6266637;28;20239;-46
2023/12/17 02:14:01;;;;;;;7.50;4.43;;;;;;;3.42;98.85;99921.19;6248345;28;20209;-47
2023/12/17 02:17:03;;;;;;;7.00;4.73;;;;;;;3.52;97.24;99906.19;6266489;28;20201;-45
2023/12/17 02:20:06;;;;;;;5.93;4.30;;;;;;;3.53;96.96;99900.75;6265191;28;20189;-47
2023/12/17 02:23:09;;;;;;;7.83;4.73;;;;;;;3.91;93.77;99879.72;6266242;28;20207;-45
2023/12/17 02:26:11;;;;;;;7.20;5.03;;;;;;;4.00;92.71;99884.13;6264943;28;20191;-45
2023/12/17 02:29:13;;;;;;;6.63;4.47;;;;;;;4.06;91.54;99881.72;6265570;28;20237;-46
2023/12/17 02:32:18;;;;;;;5.93;4.73;;;;;;;4.07;91.50;99882.53;6270271;28;20666;-45
2023/12/17 02:35:23;;;;;;;5.30;4.17;;;;;;;4.00;92.92;99882.31;6271148;28;20195;-46
2023/12/17 02:38:25;;;;;;;6.40;4.50;;;;;;;3.98;91.57;99884.25;6270779;28;20191;-45
2023/12/17 02:41:27;;;;;;;6.03;4.30;;;;;;;3.83;93.55;99883.06;6271600;28;20518;-45
2023/12/17 02:44:29;;;;;;;4.77;3.63;;;;;;;3.75;93.47;99886.44;6271421;28;20199;-47
2023/12/17 02:47:31;;;;;;;4.90;3.90;;;;;;;3.38;96.14;99886.38;6270948;28;20207;-45
2023/12/17 02:50:33;;;;;;;6.93;4.67;;;;;;;3.82;92.89;99869.03;6268040;28;20526;-45
2023/12/17 02:53:35;;;;;;;4.50;3.43;;;;;;;4.05;92.25;99873.97;6271090;28;20278;-45
2023/12/17 02:56:39;;;;;;;4.27;3.40;;;;;;;3.71;94.12;99868.41;6271256;28;20195;-45
2023/12/17 02:59:41;;;;;;;6.27;3.97;;;;;;;3.49;96.88;99856.38;6269700;28;20233;-45
2023/12/17 03:02:43;;;;;;;4.43;3.47;;;;;;;3.26;97.79;99867.25;6270393;28;20214;-46
2023/12/17 03:05:45;;;;;;;5.90;3.90;;;;;;;3.24;98.83;99874.47;6270564;28;20192;-44
2023/12/17 03:08:47;;;;;;;5.40;3.83;;;;;;;3.43;96.39;99868.31;6271159;28;20573;-46
2023/12/17 03:11:49;;;;;;;5.63;3.80;;;;;;;3.39;97.44;99864.31;6270388;28;20238;-46
2023/12/17 03:14:51;;;;;;;5.80;3.07;;;;;;;3.31;97.46;99856.31;6269482;28;20634;-45
2023/12/17 03:17:54;;;;;;;5.43;3.67;;;;;;;3.14;99.23;99849.94;6270177;28;20271;-45
2023/12/17 03:20:56;;;;;;;4.23;3.10;;;;;;;2.95;100.00;99863.94;6267695;28;20235;-46
2023/12/17 03:23:58;;;;;;;4.13;3.03;;;;;;;3.08;98.60;99863.66;6270065;28;20705;-45
2023/12/17 03:27:00;;;;;;;4.60;3.40;;;;;;;3.10;98.20;99867.84;6269929;28;20583;-45
2023/12/17 03:30:02;;;;;;;4.70;2.60;;;;;;;3.09;97.94;99853.00;6267991;28;20213;-44
2023/12/17 03:33:05;;;;;;;4.33;3.27;;;;;;;3.11;97.53;99852.88;6270332;28;20194;-44
2023/12/17 03:36:07;;;;;;;4.07;3.00;;;;;;;3.31;96.29;99872.94;6270052;28;20289;-44
2023/12/17 03:39:09;;;;;;;4.87;3.33;;;;;;;3.12;96.77;99854.53;6269857;28;20193;-45
2023/12/17 03:42:11;;;;;;;3.90;2.67;;;;;;;3.26;94.96;99845.38;6269337;28;20193;-45
2023/12/17 03:45:14;;;;;;;4.70;3.20;;;;;;;3.06;97.25;99855.91;6269876;28;20709;-45
2023/12/17 03:48:16;;;;;;;4.27;2.90;;;;;;;2.92;99.10;99852.88;6269705;28;20211;-45
2023/12/17 03:51:18;;;;;;;5.67;3.13;;;;;;;3.17;95.93;99840.94;6269248;28;20701;-45
2023/12/17 03:54:20;;;;;;;2.90;2.60;;;;;;;3.31;95.99;99843.97;6269671;28;20430;-46
2023/12/17 03:57:23;;;;;;;5.60;2.70;;;;;;;3.45;93.70;99826.03;6269601;28;20618;-44
2023/12/17 04:00:25;;;;;;;2.87;2.37;;;;;;;3.73;90.30;99803.19;6270146;28;20941;-45
2023/12/17 04:03:27;;;;;;;3.50;2.27;;;;;;;3.80;90.57;99788.47;6266426;28;20281;-45
2023/12/17 04:06:30;;;;;;;2.67;1.90;;;;;;;4.22;85.16;99790.56;6269341;28;20191;-44
2023/12/17 04:09:32;;;;;;;2.37;1.80;;;;;;;4.77;80.05;99785.97;6269483;28;20675;-46
2023/12/17 04:12:34;;;;;;;2.13;1.37;;;;;;;5.07;77.74;99783.88;6269315;28;20640;-44
2023/12/17 04:15:36;;;;;;;1.90;1.63;;;;;;;5.04;77.09;99787.66;6269569;28;20306;-47
2023/12/17 04:18:38;;;;;;;1.93;1.47;;;;;;;5.05;76.85;99776.09;6269705;28;20213;-47
2023/12/17 04:21:40;;;;;;;3.40;1.80;;;;;;;4.74;81.32;99790.75;6267370;28;20195;-47
2023/12/17 04:24:42;;;;;;;2.83;1.73;;;;;;;4.12;85.14;99791.44;6268438;28;20203;-44
2023/12/17 04:27:44;;;;;;;2.53;1.63;;;;;;;3.81;87.65;99793.56;6267550;28;20315;-45
2023/12/17 04:30:46;;;;;;;2.27;1.57;;;;;;;3.35;91.00;99790.03;6269751;28;20188;-45
2023/12/17 04:33:48;;;;;;;2.60;1.77;;;;;;;3.06;93.67;99807.69;6249597;28;20217;-46
2023/12/17 04:36:51;;;;;;;2.93;1.50;;;;;;;2.74;96.23;99811.44;6268504;28;20195;-44
2023/12/17 04:39:53;;;;;;;2.30;1.90;;;;;;;2.55;97.48;99824.59;6268184;28;20664;-46
2023/12/17 04:42:55;;;;;;;3.17;1.70;;;;;;;2.40;98.92;99821.53;6268386;28;20281;-45
2023/12/17 04:45:57;;;;;;;2.93;1.70;;;;;;;2.23;100.00;99825.69;6267374;28;20671;-44
2023/12/17 04:48:59;;;;;;;1.87;1.33;;;;;;;2.03;100.00;99819.56;6267921;28;20205;-46
2023/12/17 04:52:01;;;;;;;2.40;1.70;;;;;;;1.96;100.00;99823.66;6268220;28;20192;-45
2023/12/17 04:55:04;;;;;;;1.73;1.50;;;;;;;1.88;100.00;99815.63;6267328;28;20579;-44
2023/12/17 04:58:06;;;;;;;1.83;1.40;;;;;;;1.96;100.00;99804.44;6268201;28;20563;-45
2023/12/17 05:01:08;;;;;;;1.83;1.63;;;;;;;1.83;100.00;99811.75;6268208;28;20199;-45
2023/12/17 05:04:10;;;;;;;3.13;1.60;;;;;;;1.76;100.00;99814.06;6267444;28;20200;-45
2023/12/17 05:07:12;;;;;;;1.40;1.30;;;;;;;1.82;100.00;99800.38;6267917;28;20197;-46
2023/12/17 05:10:14;;;;;;;2.00;1.40;;;;;;;2.03;100.00;99808.22;6268563;28;20218;-46
2023/12/17 05:13:17;;;;;;;1.93;1.20;;;;;;;1.99;100.00;99815.53;6267463;28;20238;-44
2023/12/17 05:16:19;;;;;;;1.60;1.30;;;;;;;1.99;100.00;99819.94;6265484;28;20687;-44
2023/12/17 05:19:21;;;;;;;1.30;1.17;;;;;;;2.04;100.00;99828.25;6265206;28;20216;-44
2023/12/17 05:22:24;;;;;;;1.20;1.10;;;;;;;1.89;100.00;99816.47;6267440;28;20245;-44
2023/12/17 05:25:26;;;;;;;2.37;1.47;;;;;;;1.80;100.00;99812.84;6267566;28;20765;-44
2023/12/17 05:28:28;;;;;;;2.77;1.50;;;;;;;1.99;100.00;99833.91;6266880;28;20223;-45
2023/12/17 05:31:30;;;;;;;1.60;1.20;;;;;;;2.29;100.00;99826.94;6266763;28;20188;-44
2023/12/17 05:34:32;;;;;;;1.70;1.10;;;;;;;2.88;96.97;99825.16;6267176;28;20872;-44
2023/12/17 05:37:35;;;;;;;2.03;1.13;;;;;;;3.04;96.70;99842.03;6267492;28;20659;-44
2023/12/17 05:40:37;;;;;;;2.43;1.20;;;;;;;2.98;96.41;99844.41;6266946;28;20226;-45
2023/12/17 05:43:39;;;;;;;1.30;0.90;;;;;;;2.92;96.05;99844.97;6267046;28;20204;-45
2023/12/17 05:46:41;;;;;;;2.00;1.30;;;;;;;2.79;97.94;99856.59;6262068;28;20196;-45
2023/12/17 05:49:43;;;;;;;1.00;0.90;;;;;;;2.69;98.06;99852.31;6267396;28;20237;-45
2023/12/17 05:52:45;;;;;;;2.33;0.90;;;;;;;2.63;99.23;99848.44;6266540;28;20570;-46
2023/12/17 05:55:47;;;;;;;0.97;0.93;;;;;;;2.60;99.05;99846.06;6266411;28;20202;-44
2023/12/17 05:58:49;;;;;;;3.27;1.27;;;;;;;2.54;100.00;99859.78;6267293;28;20190;-44
2023/12/17 06:01:52;;;;;;;1.57;1.00;;;;;;;2.48;100.00;99839.28;6267060;28;20288;-44
2023/12/17 06:04:54;;;;;;;2.27;1.00;;;;;;;2.43;100.00;99858.09;6265851;28;20194;-44
2023/12/17 06:07:56;;;;;;;1.20;0.97;;;;;;;2.34;100.00;99832.63;6266275;28;20823;-44
2023/12/17 06:10:59;;;;;;;0.80;0.70;;;;;;;3.13;93.86;99850.09;6266334;28;20231;-46
2023/12/17 06:14:03;;;;;;;1.30;0.87;;;;;;;3.30;90.38;99858.13;6267242;28;20553;-44
2023/12/17 06:17:05;;;;;;;2.07;1.20;;;;;;;3.63;89.92;99863.84;6266708;28;20189;-45
2023/12/17 06:20:08;;;;;;;1.57;0.80;;;;;;;3.55;89.79;99876.91;6264504;28;20733;-45
2023/12/17 06:23:11;;;;;;;2.43;1.17;;;;;;;3.55;90.22;99871.66;6265374;28;20723;-45
2023/12/17 06:26:13;;;;;;;1.30;0.97;;;;;;;3.71;88.72;99874.50;6266054;28;20311;-45
2023/12/17 06:29:15;;;;;;;0.80;0.80;;;;;;;3.85;84.08;99881.13;6266154;28;20305;-44
2023/12/17 06:32:17;;;;;;;0.90;0.60;;;;;;;3.89;85.55;99879.84;6266283;28;20210;-44
2023/12/17 06:35:20;;;;;;;2.70;1.00;;;;;;;3.76;87.29;99877.53;6267107;28;20195;-45
2023/12/17 06:38:22;;;;;;;1.07;0.87;;;;;;;3.44;88.94;99892.88;6266489;28;20270;-45
2023/12/17 06:41:25;;;;;;;1.37;0.77;;;;;;;3.31;90.62;99886.09;6263898;28;20236;-44
2023/12/17 06:44:27;;;;;;;1.00;0.80;;;;;;;3.40;89.37;99880.94;6265906;28;20228;-44
2023/12/17 06:47:29;;;;;;;2.23;0.80;;;;;;;3.60;85.67;99880.78;6266585;28;20207;-44
2023/12/17 06:50:31;;;;;;;0.73;0.60;;;;;;;3.89;85.97;99893.03;6263897;28;20222;-44
2023/12/17 06:53:33;;;;;;;1.40;0.70;;;;;;;3.64;88.02;99889.22;6265554;28;20198;-44
2023/12/17 06:56:36;;;;;;;2.03;1.10;;;;;;;3.39;89.84;99895.94;6264841;28;20202;-45
2023/12/17 06:59:38;;;;;;;0.93;0.70;;;;;;;3.24;91.84;99894.69;6264330;28;20195;-44
2023/12/17 07:02:40;;;;;;;1.57;1.10;;;;;;;3.07;93.39;99890.97;6265933;28;20301;-45
2023/12/17 07:05:42;;;;;;;1.00;0.70;;;;;;;3.00;93.70;99881.97;6263178;28;20197;-44
2023/12/17 07:08:44;;;;;;;1.00;0.90;;;;;;;3.20;90.86;99882.78;6265728;28;20706;-44
2023/12/17 07:11:46;;;;;;;1.73;0.93;;;;;;;3.78;85.93;99875.56;6263172;28;20304;-44
2023/12/17 07:14:48;;;;;;;2.10;0.90;;;;;;;4.25;83.21;99856.22;6264477;28;20776;-45
2023/12/17 07:17:51;;;;;;;1.00;0.73;;;;;;;4.71;79.09;99849.94;6268377;28;20199;-44
2023/12/17 07:20:53;;;;;;;1.50;0.97;;;;;;;4.87;77.04;99858.00;6267686;28;20639;-43
2023/12/17 07:23:56;;;;;;;1.10;0.80;;;;;;;5.21;75.33;99852.00;6270540;28;20206;-43
2023/12/17 07:26:58;;;;;;;0.87;0.80;;;;;;;5.29;75.45;99860.00;6269807;28;20192;-46
2023/12/17 07:30:01;;;;;;;0.60;0.60;;;;;;;5.91;67.73;99844.88;6269599;28;20337;-43
2023/12/17 07:33:04;;;;;;;0.60;0.50;;;;;;;6.09;65.68;99814.84;6267549;28;20201;-44
2023/12/17 07:36:07;;;;;;;1.27;0.70;;;;;;;5.88;68.50;99824.00;6269301;28;20561;-45
2023/12/17 07:39:09;;;;;;;0.87;0.57;;;;;;;6.30;64.31;99859.41;6266960;28;20186;-46
2023/12/17 07:42:12;;;;;;;0.83;0.60;;;;;;;6.46;63.82;99857.66;6270225;28;20195;-44
2023/12/17 07:45:16;;;;;;;0.83;0.50;;;;;;;6.31;66.96;99856.63;6268870;28;20204;-44
2023/12/17 07:48:18;;;;;;;0.57;0.57;;;;;;;6.11;66.20;99856.06;6269148;28;20204;-44
2023/12/17 07:51:20;;;;;;;0.43;0.43;;;;;;;6.00;68.22;99861.59;6254149;28;20310;-44
2023/12/17 07:54:22;;;;;;;0.70;0.70;;;;;;;5.94;67.78;99865.72;6269713;28;20188;-45
2023/12/17 07:57:24;;;;;;;1.23;0.60;;;;;;;5.75;71.86;99865.09;6268984;28;20665;-46
2023/12/17 08:00:27;;;;;;;0.57;0.57;;;;;;;5.73;71.64;99862.59;6269347;28;20197;-47
2023/12/17 08:03:29;;;;;;;0.57;0.50;;;;;;;5.88;70.78;99854.91;6269546;28;20885;-44
2023/12/17 08:06:32;;;;;;;1.23;0.60;;;;;;;6.16;65.64;99852.94;6267669;28;20955;-45
2023/12/17 08:09:39;;;;;;;0.70;0.70;;;;;;;6.46;64.18;99839.13;6250621;28;20303;-44
2023/12/17 08:12:41;;;;;;;1.77;0.60;;;;;;;6.56;64.28;99849.56;6269039;28;20237;-44
2023/12/17 08:15:43;;;;;;;1.37;0.70;;;;;;;6.65;63.37;99842.44;6269096;28;20200;-44
2023/12/17 08:18:46;;;;;;;0.83;0.60;;;;;;;6.52;63.94;99847.41;6265738;28;20191;-46
2023/12/17 08:21:48;;;;;;;0.77;0.70;;;;;;;6.52;63.71;99848.22;6267707;28;20198;-45
2023/12/17 08:24:50;;;;;;;1.10;0.50;;;;;;;6.46;65.53;99844.41;6268406;28;20191;-45
2023/12/17 08:27:52;;;;;;;0.47;0.43;;;;;;;6.76;61.96;99842.16;6268167;28;20197;-44
2023/12/17 08:30:54;;;;;;;1.87;0.67;;;;;;;6.78;61.66;99839.31;6267867;28;20220;-44
2023/12/17 08:33:56;;;;;;;0.70;0.70;;;;;;;6.98;62.25;99840.66;6266588;28;20200;-45
2023/12/17 08:36:58;;;;;;;0.67;0.60;;;;;;;6.93;60.92;99848.28;6267614;28;20807;-45
2023/12/17 08:40:03;;;;;;;0.33;0.33;;;;;;;7.04;61.69;99831.22;6268092;28;20288;-45
2023/12/17 08:43:06;;;;;;;0.40;0.40;;;;;;;7.13;60.21;99849.59;6268380;28;20206;-45
2023/12/17 08:46:08;;;;;;;0.50;0.50;;;;;;;7.14;60.76;99845.13;6266533;28;20712;-44
2023/12/17 08:49:11;;;;;;;0.40;0.40;;;;;;;7.22;59.18;99858.38;6267793;28;20213;-45
2023/12/17 08:52:16;;;;;;;0.50;0.50;;;;;;;7.18;59.38;99855.22;6267982;28;20198;-44
2023/12/17 08:55:21;;;;;;;0.77;0.50;;;;;;;7.33;59.85;99863.34;6266111;28;20187;-45
2023/12/17 08:58:23;;;;;;;0.73;0.40;;;;;;;7.48;58.21;99832.50;6265593;28;20198;-44
2023/12/17 09:01:25;;;;;;;0.53;0.50;;;;;;;7.73;55.89;99840.38;6268056;28;20221;-44
2023/12/17 09:04:27;;;;;;;0.37;0.30;;;;;;;7.68;57.66;99822.31;6268151;28;20296;-44
2023/12/17 09:07:30;;;;;;;0.33;0.33;;;;;;;7.74;57.40;99826.97;6268272;28;20420;-45
2023/12/17 09:10:33;;;;;;;0.50;0.40;;;;;;;8.10;55.21;99826.50;6267102;28;20209;-45
2023/12/17 09:13:36;;;;;;;0.50;0.30;;;;;;;8.39;53.12;99823.22;6267931;28;20234;-44
2023/12/17 09:16:38;;;;;;;0.60;0.40;;;;;;;8.39;53.93;99823.22;6264550;28;20230;-45
2023/12/17 09:19:47;;;;;;;0.63;0.40;;;;;;;8.39;54.66;99825.06;6264887;28;20206;-44
2023/12/17 09:22:50;;;;;;;0.50;0.30;;;;;;;8.61;52.09;99800.34;6267018;28;20195;-44
2023/12/17 09:25:52;;;;;;;0.33;0.33;;;;;;;8.70;51.88;99815.22;6250231;28;20194;-46
2023/12/17 09:28:54;;;;;;;1.57;0.50;;;;;;;8.72;53.87;99823.03;6267161;28;20199;-48
2023/12/17 09:31:56;;;;;;;0.50;0.30;;;;;;;8.82;54.17;99813.00;6244282;28;20206;-45
2023/12/17 09:34:58;;;;;;;0.83;0.40;;;;;;;9.03;50.60;99813.16;6265508;28;20273;-46
2023/12/17 09:38:00;;;;;;;0.30;0.30;;;;;;;9.07;52.14;99823.44;6264627;28;20340;-44
2023/12/17 09:41:05;;;;;;;0.40;0.20;;;;;;;9.08;52.18;99828.56;6266620;28;20192;-44
2023/12/17 09:44:10;;;;;;;0.30;0.30;;;;;;;9.23;49.15;99817.97;6248874;28;20682;-45
2023/12/17 09:47:42;;;;;;;0.97;0.40;;;;;;;9.33;49.30;99825.69;6235120;28;20249;-46
2023/12/17 09:50:44;;;;;;;0.60;0.37;;;;;;;9.30;49.88;99811.72;6266703;28;20211;-47
2023/12/17 09:53:47;;;;;;;0.20;0.20;;;;;;;9.29;50.10;99825.22;6266268;28;20572;-45
2023/12/17 09:56:50;;;;;;;0.40;0.33;;;;;;;9.17;52.96;99827.50;6264823;28;20191;-44
2023/12/17 09:59:52;;;;;;;0.40;0.30;;;;;;;9.26;46.56;99825.56;6265435;28;20559;-46
2023/12/17 10:03:04;;;;;;;0.20;0.20;;;;;;;9.30;46.78;99830.34;6266899;28;21034;-45
2023/12/17 10:06:07;;;;;;;0.33;0.30;;;;;;;9.40;44.44;99811.47;6264014;28;20711;-46
2023/12/17 10:09:09;;;;;;;0.20;0.20;;;;;;;9.41;47.98;99823.78;6266911;28;20215;-45
2023/12/17 10:12:15;;;;;;;0.40;0.40;;;;;;;9.32;47.77;99808.91;6266636;28;20362;-44
2023/12/17 10:15:19;;;;;;;0.37;0.20;;;;;;;9.54;46.23;99810.66;6266992;28;20627;-47
2023/12/17 10:18:22;;;;;;;0.30;0.30;;;;;;;9.74;43.56;99808.28;6266827;28;20608;-46
2023/12/17 10:21:25;;;;;;;0.30;0.30;;;;;;;10.04;38.69;99801.09;6265295;28;20185;-44
2023/12/17 10:24:37;;;;;;;0.50;0.40;;;;;;;10.01;42.17;99798.81;6265791;28;20199;-46
2023/12/17 10:27:40;;;;;;;0.30;0.30;;;;;;;9.84;44.98;99778.72;6266377;28;20667;-45
2023/12/17 10:30:44;;;;;;;0.40;0.30;;;;;;;10.16;39.07;99788.13;6265843;28;20226;-47
2023/12/17 10:34:18;;;;;;;0.37;0.30;;;;;;;10.06;40.93;99772.44;6262711;28;20205;-45
2023/12/17 10:37:25;;;;;;;1.07;0.30;;;;;;;10.33;41.71;99794.91;6265291;28;20204;-44
2023/12/17 10:40:29;;;;;;;0.43;0.43;;;;;;;10.41;38.06;99767.34;6263888;28;20195;-44
2023/12/17 10:43:33;;;;;;;0.30;0.20;;;;;;;10.79;33.35;99783.09;6266136;28;20890;-47
2023/12/17 10:46:35;;;;;;;0.37;0.37;;;;;;;10.84;34.20;99780.66;6248551;28;20209;-47
2023/12/17 10:49:39;;;;;;;0.73;0.60;;;;;;;10.80;40.31;99788.22;6266072;28;20184;-46
2023/12/17 10:52:43;;;;;;;0.40;0.30;;;;;;;10.95;33.33;99779.31;6267713;28;20209;-45
2023/12/17 10:55:46;;;;;;;0.33;0.30;;;;;;;10.90;34.28;99793.22;6271493;28;20216;-46
2023/12/17 10:58:49;;;;;;;0.37;0.37;;;;;;;10.79;37.89;99789.25;6271146;28;20214;-48
2023/12/17 11:01:55;;;;;;;0.37;0.30;;;;;;;10.96;34.82;99775.63;6269919;28;20573;-46
2023/12/17 11:04:58;;;;;;;0.40;0.40;;;;;;;10.89;36.98;99778.25;6271004;28;20819;-46
2023/12/17 11:08:00;;;;;;;0.40;0.30;;;;;;;10.93;35.10;99792.81;6270965;28;20701;-45
2023/12/17 11:11:02;;;;;;;0.30;0.30;;;;;;;10.89;38.75;99788.91;6270442;28;20229;-49
2023/12/17 11:14:04;;;;;;;0.60;0.50;;;;;;;10.53;37.17;99775.63;6270234;28;20237;-46
2023/12/17 11:17:12;;;;;;;0.50;0.47;;;;;;;10.54;37.04;99778.13;6267184;28;20288;-47
2023/12/17 11:20:14;;;;;;;0.43;0.33;;;;;;;10.58;35.52;99765.22;6270586;28;20570;-46
2023/12/17 11:23:17;;;;;;;1.27;0.40;;;;;;;10.46;38.30;99772.91;6269525;28;20200;-48
2023/12/17 11:26:19;;;;;;;0.70;0.47;;;;;;;10.40;36.06;99773.69;6267102;28;20284;-47
2023/12/17 11:29:37;;;;;;;0.40;0.30;;;;;;;10.70;33.53;99758.38;6269685;28;20206;-47
2023/12/17 11:32:40;;;;;;;0.37;0.23;;;;;;;10.43;39.27;99741.31;6267051;28;20676;-46
2023/12/17 11:35:43;;;;;;;1.00;0.30;;;;;;;10.50;39.09;99754.72;6269783;28;20225;-52
2023/12/17 11:38:46;;;;;;;0.70;0.60;;;;;;;10.38;35.56;99749.03;6269457;28;20199;-47
2023/12/17 11:41:48;;;;;;;0.40;0.40;;;;;;;10.50;36.58;99752.88;6252130;28;20705;-46
2023/12/17 11:44:51;;;;;;;0.57;0.40;;;;;;;10.38;41.83;99751.72;6267220;28;20205;-45
2023/12/17 11:47:53;;;;;;;0.30;0.30;;;;;;;10.27;40.79;99749.56;6269640;28;20858;-46
2023/12/17 11:50:56;;;;;;;0.30;0.30;;;;;;;10.30;36.24;99741.19;6269508;28;20772;-45
2023/12/17 11:53:59;;;;;;;1.90;0.40;;;;;;;10.35;40.49;99728.13;6251156;28;20701;-46
2023/12/17 11:57:02;;;;;;;0.30;0.30;;;;;;;10.34;38.66;99734.44;6269644;28;20198;-47
2023/12/17 12:00:14;;;;;;;0.90;0.47;;;;;;;10.12;43.53;99743.41;6269000;28;20217;-47
2023/12/17 12:03:18;;;;;;;2.17;0.50;;;;;;;10.52;33.76;99742.84;6267766;28;20309;-46
2023/12/17 12:06:21;;;;;;;0.50;0.30;;;;;;;10.43;37.93;99743.97;6268662;28;20716;-45
2023/12/17 12:09:23;;;;;;;0.60;0.33;;;;;;;10.20;41.85;99740.66;6268725;28;20278;-46
2023/12/17 12:12:26;;;;;;;0.60;0.40;;;;;;;10.25;40.12;99727.63;6268678;28;20273;-46
2023/12/17 12:15:29;;;;;;;0.80;0.40;;;;;;;10.21;40.95;99734.31;6250012;28;20680;-46
2023/12/17 12:18:31;;;;;;;1.03;0.30;;;;;;;9.95;42.71;99740.13;6268724;28;20206;-45
2023/12/17 12:21:34;;;;;;;0.40;0.40;;;;;;;9.91;42.48;99736.22;6268265;28;20750;-43
2023/12/17 12:24:36;;;;;;;2.97;0.60;;;;;;;9.79;38.97;99735.84;6268509;28;20234;-43
2023/12/17 12:27:38;;;;;;;0.53;0.33;;;;;;;10.22;34.73;99726.13;6267141;28;20594;-43
2023/12/17 12:30:41;;;;;;;1.03;0.30;;;;;;;10.52;36.55;99728.69;6250179;28;20200;-46
2023/12/17 12:33:54;;;;;;;1.03;0.40;;;;;;;10.32;38.81;99715.19;6266865;28;20352;-49
2023/12/17 12:36:57;;;;;;;0.57;0.30;;;;;;;10.04;40.94;99712.38;6267962;28;20189;-46
2023/12/17 12:39:59;;;;;;;0.30;0.30;;;;;;;9.97;37.08;99716.81;6265462;28;20206;-46
2023/12/17 12:43:07;;;;;;;1.97;1.30;;;;;;;9.71;40.60;99717.34;6268171;28;20192;-47
2023/12/17 12:46:09;;;;;;;0.40;0.40;;;;;;;9.57;44.64;99711.84;6267787;28;20196;-46
2023/12/17 12:49:11;;;;;;;0.30;0.30;;;;;;;9.44;43.90;99710.84;6268469;28;20195;-48
2023/12/17 12:52:14;;;;;;;0.93;0.40;;;;;;;9.34;44.67;99704.97;6249730;28;20848;-46
2023/12/17 12:55:16;;;;;;;0.30;0.30;;;;;;;9.18;47.61;99706.81;6268263;28;20576;-45
2023/12/17 12:58:18;;;;;;;0.37;0.30;;;;;;;9.12;46.39;99701.41;6268025;28;20209;-47
2023/12/17 13:01:21;;;;;;;0.30;0.30;;;;;;;9.00;47.01;99699.19;6268007;28;20291;-46
2023/12/17 13:04:23;;;;;;;0.60;0.40;;;;;;;9.10;45.59;99698.09;6268463;28;20188;-46
2023/12/17 13:07:25;;;;;;;0.50;0.40;;;;;;;9.10;46.39;99693.59;6267864;28;20237;-46
2023/12/17 13:10:28;;;;;;;0.53;0.50;;;;;;;9.05;47.29;99699.47;6268212;28;20196;-46
2023/12/17 13:13:30;;;;;;;2.10;0.50;;;;;;;9.02;47.65;99701.69;6266677;28;20697;-46
2023/12/17 13:16:32;;;;;;;0.50;0.50;;;;;;;9.01;48.50;99689.38;6265875;28;20587;-43
2023/12/17 13:19:34;;;;;;;0.53;0.37;;;;;;;8.96;46.78;99689.91;6267076;28;20191;-45
2023/12/17 13:22:36;;;;;;;1.57;0.50;;;;;;;8.90;48.67;99682.66;6267786;28;20659;-44
2023/12/17 13:25:39;;;;;;;0.30;0.30;;;;;;;8.87;49.22;99683.06;6267662;28;20267;-45
2023/12/17 13:28:41;;;;;;;1.07;0.60;;;;;;;8.85;49.75;99679.72;6254158;28;20205;-44
2023/12/17 13:31:44;;;;;;;0.60;0.57;;;;;;;8.80;50.13;99682.09;6264791;28;20191;-45
2023/12/17 13:34:46;;;;;;;1.37;0.50;;;;;;;8.78;50.72;99674.31;6266029;28;20633;-45
2023/12/17 13:37:49;;;;;;;0.60;0.60;;;;;;;8.71;49.40;99665.41;6267219;28;20191;-44
2023/12/17 13:40:52;;;;;;;1.53;0.90;;;;;;;8.44;51.99;99639.44;6266333;28;20210;-46
2023/12/17 13:43:54;;;;;;;0.80;0.70;;;;;;;8.42;52.68;99662.69;6266806;28;20810;-45
2023/12/17 13:46:56;;;;;;;0.40;0.40;;;;;;;8.42;53.42;99683.94;6248978;28;20207;-45
2023/12/17 13:49:58;;;;;;;0.67;0.60;;;;;;;8.26;55.09;99690.16;6248291;28;20218;-46
2023/12/17 13:53:01;;;;;;;0.60;0.40;;;;;;;8.00;56.11;99663.97;6266612;28;20227;-43
2023/12/17 13:56:03;;;;;;;0.83;0.43;;;;;;;7.95;57.85;99685.75;6247670;28;20881;-46
2023/12/17 13:59:06;;;;;;;0.40;0.40;;;;;;;7.82;60.03;99688.13;6266394;28;20293;-44
2023/12/17 14:02:08;;;;;;;1.37;0.40;;;;;;;7.69;60.07;99688.72;6248345;28;20246;-45
2023/12/17 14:05:11;;;;;;;1.40;0.60;;;;;;;7.59;61.79;99692.59;6262806;28;20225;-45
2023/12/17 14:08:15;;;;;;;3.70;0.80;;;;;;;7.45;63.93;99694.13;6266467;28;20194;-45
2023/12/17 14:11:18;;;;;;;1.27;0.90;;;;;;;7.32;63.66;99691.19;6265184;28;20238;-43
2023/12/17 14:14:29;;;;;;;1.33;0.80;;;;;;;7.14;66.56;99689.59;6263536;28;20199;-44
2023/12/17 14:17:32;;;;;;;1.50;1.00;;;;;;;7.01;69.17;99693.78;6264983;28;20203;-44
2023/12/17 14:20:34;;;;;;;1.67;1.00;;;;;;;6.82;69.38;99689.66;6263513;28;20769;-43
2023/12/17 14:23:37;;;;;;;5.00;1.60;;;;;;;6.72;71.80;99703.91;6245331;28;20197;-44
2023/12/17 14:26:41;;;;;;;1.70;1.20;;;;;;;6.62;71.26;99700.59;6264819;28;20772;-43